Time;durP1;ratioP1;P1;durP2;ratioP2;P2;SDS_P1;SDS_P2;PMS_P1;PMS_P2;Temp;Humidity;BMP_temperature;BMP_pressure;BME280_temperature;BME280_humidity;BME280_pressure;Samples;Min_cycle;Max_cycle;Signal;HPM_P1;HPM_P2
2021/10/08 00:00:28;;;;;;;4.77;3.80;;;11.80;99.90;;;;;;5070446;28;20224;-60
2021/10/08 00:02:56;;;;;;;4.93;3.60;;;11.80;99.90;;;;;;5070311;28;20205;-60
2021/10/08 00:05:24;;;;;;;6.73;3.90;;;11.80;99.90;;;;;;5070319;28;20668;-60
2021/10/08 00:07:51;;;;;;;4.67;3.67;;;11.70;99.90;;;;;;5070498;28;20212;-61
2021/10/08 00:10:17;;;;;;;4.30;3.43;;;11.70;99.90;;;;;;5070354;28;20229;-60
2021/10/08 00:12:44;;;;;;;3.77;3.20;;;11.60;99.90;;;;;;5070458;28;20208;-61
2021/10/08 00:15:11;;;;;;;5.77;3.30;;;11.50;99.90;;;;;;5070184;28;20680;-61
2021/10/08 00:17:38;;;;;;;4.17;3.07;;;11.30;99.90;;;;;;5070947;28;20209;-61
2021/10/08 00:20:06;;;;;;;3.20;2.90;;;11.20;99.90;;;;;;5073947;28;20220;-61
2021/10/08 00:22:34;;;;;;;3.17;2.40;;;11.10;99.90;;;;;;5074189;28;20201;-61
2021/10/08 00:25:01;;;;;;;5.13;3.17;;;10.80;99.90;;;;;;5073904;28;20259;-61
2021/10/08 00:27:28;;;;;;;4.80;2.90;;;10.70;99.90;;;;;;5074205;28;20209;-61
2021/10/08 00:29:54;;;;;;;4.70;3.03;;;10.70;99.90;;;;;;5074316;28;20225;-61
2021/10/08 00:32:21;;;;;;;4.20;3.03;;;10.60;99.90;;;;;;5074499;28;20204;-61
2021/10/08 00:34:48;;;;;;;3.47;2.60;;;10.50;99.90;;;;;;5074112;28;20213;-61
2021/10/08 00:37:14;;;;;;;3.40;3.10;;;10.40;99.90;;;;;;5073839;28;20205;-61
2021/10/08 00:39:42;;;;;;;5.77;2.97;;;10.30;99.90;;;;;;5073454;28;20216;-61
2021/10/08 00:42:09;;;;;;;6.00;2.70;;;10.30;99.90;;;;;;5073655;28;20592;-61
2021/10/08 00:44:36;;;;;;;5.30;2.90;;;10.20;99.90;;;;;;5073337;28;20687;-61
2021/10/08 00:47:11;;;;;;;4.57;3.00;;;10.10;99.90;;;;;;5073658;28;20296;-61
2021/10/08 00:49:38;;;;;;;4.53;3.30;;;10.10;99.90;;;;;;5073383;28;20232;-60
2021/10/08 00:52:05;;;;;;;3.10;2.80;;;10.10;99.90;;;;;;5073678;28;20216;-61
2021/10/08 00:54:32;;;;;;;4.00;3.57;;;10.10;99.90;;;;;;5073304;28;20211;-60
2021/10/08 00:57:00;;;;;;;4.80;3.20;;;10.00;99.90;;;;;;5073756;28;20201;-61
2021/10/08 00:59:27;;;;;;;6.37;3.30;;;10.10;99.90;;;;;;5073258;28;20727;-61
2021/10/08 01:01:54;;;;;;;7.70;3.37;;;10.00;99.90;;;;;;5073443;28;20212;-61
2021/10/08 01:04:24;;;;;;;5.73;3.27;;;10.00;99.90;;;;;;5073303;28;20306;-61
2021/10/08 01:06:51;;;;;;;3.93;3.07;;;10.00;99.90;;;;;;5073369;28;20262;-61
2021/10/08 01:09:18;;;;;;;4.53;3.20;;;10.00;99.90;;;;;;5072876;28;20274;-61
2021/10/08 01:11:45;;;;;;;3.87;3.37;;;10.00;99.90;;;;;;5073023;28;20204;-61
2021/10/08 01:14:13;;;;;;;5.13;3.40;;;9.90;99.90;;;;;;5073108;28;20429;-62
2021/10/08 01:16:40;;;;;;;5.90;3.30;;;9.90;99.90;;;;;;5073218;28;20205;-61
2021/10/08 01:19:07;;;;;;;5.20;3.50;;;9.90;99.90;;;;;;5072891;28;20324;-61
2021/10/08 01:21:35;;;;;;;5.80;3.40;;;9.90;99.90;;;;;;5072917;28;20208;-62
2021/10/08 01:24:02;;;;;;;6.83;3.30;;;9.90;99.90;;;;;;5072580;28;20693;-62
2021/10/08 01:26:29;;;;;;;7.00;3.27;;;9.90;99.90;;;;;;5072989;28;20623;-61
2021/10/08 01:28:55;;;;;;;5.80;3.03;;;9.80;99.90;;;;;;5072207;28;20644;-61
2021/10/08 01:31:22;;;;;;;4.80;3.13;;;9.80;99.90;;;;;;5072581;28;20286;-61
2021/10/08 01:33:50;;;;;;;4.73;3.20;;;9.70;99.90;;;;;;5072835;28;20207;-61
2021/10/08 01:36:17;;;;;;;3.63;3.20;;;9.70;99.90;;;;;;5072781;28;20220;-62
2021/10/08 01:38:45;;;;;;;5.73;3.27;;;9.70;99.90;;;;;;5072395;28;20228;-61
2021/10/08 01:41:11;;;;;;;4.03;3.33;;;9.60;99.90;;;;;;5072801;28;20208;-61
2021/10/08 01:43:38;;;;;;;4.43;3.17;;;9.60;99.90;;;;;;5072554;28;20209;-61
2021/10/08 01:46:05;;;;;;;3.23;2.83;;;9.50;99.90;;;;;;5072562;28;20263;-63
2021/10/08 01:48:31;;;;;;;5.20;2.93;;;9.40;99.90;;;;;;5072429;28;20231;-61
2021/10/08 01:50:58;;;;;;;6.63;3.77;;;9.30;99.90;;;;;;5072291;28;20549;-61
2021/10/08 01:53:25;;;;;;;4.77;3.30;;;9.30;99.90;;;;;;5072223;28;20208;-63
2021/10/08 01:55:53;;;;;;;4.17;3.03;;;9.30;99.90;;;;;;5072806;28;20605;-63
2021/10/08 01:58:20;;;;;;;4.73;3.73;;;9.30;99.90;;;;;;5072413;28;20213;-61
2021/10/08 02:00:47;;;;;;;3.80;3.20;;;9.20;99.90;;;;;;5072668;28;20205;-62
2021/10/08 02:03:13;;;;;;;3.90;3.40;;;9.20;99.90;;;;;;5072405;28;20599;-62
2021/10/08 02:05:40;;;;;;;3.53;3.00;;;9.20;99.90;;;;;;5072015;28;20278;-62
2021/10/08 02:08:07;;;;;;;3.50;3.20;;;9.10;99.90;;;;;;5072442;28;20249;-62
2021/10/08 02:10:33;;;;;;;6.00;3.50;;;9.10;99.90;;;;;;5072000;28;20229;-62
2021/10/08 02:13:01;;;;;;;4.97;3.27;;;9.00;99.90;;;;;;5071963;28;20208;-62
2021/10/08 02:15:28;;;;;;;5.90;3.73;;;9.10;99.90;;;;;;5071921;28;20209;-62
2021/10/08 02:17:55;;;;;;;5.70;3.30;;;9.10;99.90;;;;;;5071872;28;20707;-62
2021/10/08 02:20:22;;;;;;;5.30;3.57;;;9.00;99.90;;;;;;5072037;28;20523;-62
2021/10/08 02:22:48;;;;;;;4.40;3.80;;;9.10;99.90;;;;;;5072253;28;20209;-62
2021/10/08 02:25:15;;;;;;;4.57;4.00;;;9.00;99.90;;;;;;5071706;28;20211;-61
2021/10/08 02:27:42;;;;;;;4.70;3.67;;;9.00;99.90;;;;;;5071745;28;20215;-61
2021/10/08 02:30:12;;;;;;;5.47;3.60;;;9.00;99.90;;;;;;5071423;28;20754;-62
2021/10/08 02:32:38;;;;;;;5.23;3.70;;;9.00;99.90;;;;;;5071557;28;20205;-61
2021/10/08 02:35:06;;;;;;;3.50;3.20;;;9.00;99.90;;;;;;5071386;28;20205;-61
2021/10/08 02:37:33;;;;;;;5.17;3.80;;;9.00;99.90;;;;;;5071655;28;20660;-62
2021/10/08 02:40:00;;;;;;;6.30;4.13;;;9.00;99.90;;;;;;5071418;28;20232;-61
2021/10/08 02:42:26;;;;;;;4.70;3.73;;;9.00;99.90;;;;;;5070562;28;20247;-61
2021/10/08 02:44:53;;;;;;;5.43;3.83;;;9.00;99.90;;;;;;5071102;28;20577;-61
2021/10/08 02:47:21;;;;;;;6.17;3.40;;;9.00;99.90;;;;;;5071100;28;20609;-62
2021/10/08 02:49:48;;;;;;;4.83;3.83;;;9.00;99.90;;;;;;5071192;28;20282;-62
2021/10/08 02:52:15;;;;;;;5.73;3.63;;;9.00;99.90;;;;;;5071370;28;20211;-62
2021/10/08 02:54:41;;;;;;;5.00;3.87;;;8.90;99.90;;;;;;5071273;28;20259;-62
2021/10/08 02:57:08;;;;;;;5.00;3.97;;;8.90;99.90;;;;;;5071231;28;20205;-62
2021/10/08 02:59:35;;;;;;;5.27;4.03;;;8.80;99.90;;;;;;5070953;28;20221;-62
2021/10/08 03:02:01;;;;;;;4.83;3.17;;;8.80;99.90;;;;;;5071430;28;20626;-62
2021/10/08 03:04:29;;;;;;;3.87;3.37;;;8.80;99.90;;;;;;5071421;28;20212;-62
2021/10/08 03:06:57;;;;;;;8.90;3.30;;;8.80;99.90;;;;;;5071131;28;20209;-62
2021/10/08 03:09:23;;;;;;;4.53;3.43;;;8.80;99.90;;;;;;5070955;28;20426;-62
2021/10/08 03:11:50;;;;;;;4.63;3.10;;;8.80;99.90;;;;;;5071139;28;20201;-62
2021/10/08 03:14:17;;;;;;;5.03;3.50;;;8.70;99.90;;;;;;5070746;28;20215;-61
2021/10/08 03:16:43;;;;;;;4.67;3.20;;;8.70;99.90;;;;;;5070906;28;20266;-62
2021/10/08 03:19:10;;;;;;;4.83;4.00;;;8.60;99.90;;;;;;5070907;28;20224;-64
2021/10/08 03:21:38;;;;;;;7.50;3.40;;;8.60;99.90;;;;;;5071026;28;20684;-61
2021/10/08 03:24:05;;;;;;;3.67;3.17;;;8.60;99.90;;;;;;5070866;28;20204;-63
2021/10/08 03:26:32;;;;;;;3.47;3.10;;;8.60;99.90;;;;;;5070831;28;20212;-60
2021/10/08 03:29:00;;;;;;;4.97;2.97;;;8.60;99.90;;;;;;5070701;28;20715;-61
2021/10/08 03:31:28;;;;;;;4.83;2.93;;;8.60;99.90;;;;;;5070796;28;20228;-61
2021/10/08 03:33:54;;;;;;;3.97;3.57;;;8.60;99.90;;;;;;5070560;28;20696;-60
2021/10/08 03:36:25;;;;;;;7.07;4.77;;;8.60;99.90;;;;;;5071002;28;20212;-61
2021/10/08 03:38:53;;;;;;;17.37;11.37;;;8.50;99.90;;;;;;5070781;28;20235;-61
2021/10/08 03:41:20;;;;;;;7.00;5.37;;;8.50;99.90;;;;;;5071099;28;20287;-61
2021/10/08 03:43:48;;;;;;;8.90;5.63;;;8.60;99.90;;;;;;5070448;28;20307;-61
2021/10/08 03:46:15;;;;;;;5.57;4.50;;;8.60;99.90;;;;;;5070658;28;20208;-62
2021/10/08 03:51:30;;;;;;;3.30;3.00;;;8.60;99.90;;;;;;5061876;28;20587;-63
2021/10/08 03:53:59;;;;;;;20.50;14.27;;;8.60;99.90;;;;;;5073572;28;20266;-63
2021/10/08 03:56:27;;;;;;;4.83;3.63;;;8.60;99.90;;;;;;5074961;28;20580;-61
2021/10/08 03:58:54;;;;;;;6.30;4.57;;;8.60;99.90;;;;;;5074501;28;20233;-61
2021/10/08 04:01:21;;;;;;;8.40;6.03;;;8.60;99.90;;;;;;5074834;28;20201;-61
2021/10/08 04:03:48;;;;;;;6.00;3.13;;;8.50;99.90;;;;;;5074509;28;20209;-60
2021/10/08 04:06:16;;;;;;;4.37;3.60;;;8.60;99.90;;;;;;5074412;28;20248;-60
2021/10/08 04:08:43;;;;;;;12.37;6.50;;;8.60;99.90;;;;;;5073995;28;20629;-61
2021/10/08 04:11:11;;;;;;;6.27;5.13;;;8.50;99.90;;;;;;5074497;28;20228;-63
2021/10/08 04:13:38;;;;;;;5.40;4.00;;;8.50;99.90;;;;;;5074238;28;20205;-63
2021/10/08 04:16:05;;;;;;;5.40;4.23;;;8.60;99.90;;;;;;5074328;28;20205;-61
2021/10/08 04:18:33;;;;;;;7.73;5.93;;;8.50;99.90;;;;;;5074275;28;20220;-61
2021/10/08 04:21:00;;;;;;;10.13;6.73;;;8.50;99.90;;;;;;5074235;28;20201;-61
2021/10/08 04:23:27;;;;;;;5.53;4.33;;;8.50;99.90;;;;;;5073954;28;20277;-61
2021/10/08 04:25:53;;;;;;;6.87;4.47;;;8.50;99.90;;;;;;5074312;28;20213;-61
2021/10/08 04:28:22;;;;;;;7.07;4.37;;;8.60;99.90;;;;;;5073864;28;20201;-61
2021/10/08 04:30:48;;;;;;;5.90;4.83;;;8.50;99.90;;;;;;5074143;28;20270;-61
2021/10/08 04:33:18;;;;;;;8.33;4.50;;;8.50;99.90;;;;;;5074224;28;20250;-61
2021/10/08 04:35:45;;;;;;;11.53;6.63;;;8.50;99.90;;;;;;5074240;28;20197;-61
2021/10/08 04:38:12;;;;;;;6.83;4.30;;;8.50;99.90;;;;;;5074481;28;20205;-61
2021/10/08 04:40:39;;;;;;;6.53;4.53;;;8.50;99.90;;;;;;5073970;28;20197;-61
2021/10/08 04:43:06;;;;;;;5.97;4.30;;;8.50;99.90;;;;;;5073664;28;20209;-61
2021/10/08 04:45:34;;;;;;;5.90;4.53;;;8.50;99.90;;;;;;5073528;28;20216;-62
2021/10/08 04:48:01;;;;;;;8.67;4.97;;;8.50;99.90;;;;;;5073769;28;20262;-61
2021/10/08 04:50:28;;;;;;;10.27;5.13;;;8.40;99.90;;;;;;5073131;28;20301;-61
2021/10/08 04:52:55;;;;;;;8.30;4.47;;;8.40;99.90;;;;;;5073553;28;20208;-61
2021/10/08 04:55:22;;;;;;;8.17;4.80;;;8.40;99.90;;;;;;5073262;28;20200;-61
2021/10/08 04:57:49;;;;;;;6.93;5.00;;;8.40;99.90;;;;;;5073700;28;20208;-64
2021/10/08 05:00:16;;;;;;;7.90;5.17;;;8.40;99.90;;;;;;5073295;28;20232;-61
2021/10/08 05:02:44;;;;;;;8.20;5.80;;;8.50;99.90;;;;;;5072726;28;20205;-61
2021/10/08 05:05:11;;;;;;;12.37;6.80;;;8.40;99.90;;;;;;5072207;28;20258;-61
2021/10/08 05:07:37;;;;;;;8.07;5.47;;;8.40;99.90;;;;;;5072965;28;20207;-62
2021/10/08 05:10:05;;;;;;;5.93;4.00;;;8.50;99.90;;;;;;5073119;28;20713;-61
2021/10/08 05:12:31;;;;;;;7.47;4.03;;;8.40;99.90;;;;;;5073310;28;20258;-61
2021/10/08 05:14:58;;;;;;;11.50;4.77;;;8.50;99.90;;;;;;5072685;28;20209;-61
2021/10/08 05:17:25;;;;;;;6.20;4.67;;;8.50;99.90;;;;;;5072904;28;20201;-61
2021/10/08 05:19:53;;;;;;;8.77;3.30;;;8.50;99.90;;;;;;5073137;28;20302;-61
2021/10/08 05:22:19;;;;;;;4.37;3.80;;;8.50;99.90;;;;;;5072912;28;20596;-61
2021/10/08 05:24:46;;;;;;;4.67;3.37;;;8.50;99.90;;;;;;5072851;28;20578;-61
2021/10/08 05:27:13;;;;;;;8.30;3.50;;;8.40;99.90;;;;;;5072662;28;20205;-61
2021/10/08 05:29:39;;;;;;;5.07;3.50;;;8.30;99.90;;;;;;5072640;28;20232;-61
2021/10/08 05:32:06;;;;;;;7.33;4.53;;;8.30;99.90;;;;;;5072682;28;20229;-62
2021/10/08 05:34:33;;;;;;;4.57;3.87;;;8.30;99.90;;;;;;5073066;28;20212;-63
2021/10/08 05:37:01;;;;;;;6.83;3.73;;;8.20;99.90;;;;;;5072939;28;20211;-63
2021/10/08 05:39:28;;;;;;;5.17;3.90;;;8.20;99.90;;;;;;5072673;28;20696;-62
2021/10/08 05:41:55;;;;;;;7.50;4.83;;;8.20;99.90;;;;;;5072796;28;20208;-62
2021/10/08 05:44:21;;;;;;;5.57;4.27;;;8.20;99.90;;;;;;5072428;28;20232;-62
2021/10/08 05:46:48;;;;;;;13.33;4.90;;;8.20;99.90;;;;;;5072794;28;20216;-63
2021/10/08 05:49:15;;;;;;;7.00;4.13;;;8.30;99.90;;;;;;5072540;28;20229;-63
2021/10/08 05:51:41;;;;;;;7.67;4.50;;;8.40;99.90;;;;;;5072892;28;20221;-61
2021/10/08 05:54:09;;;;;;;6.10;4.27;;;8.40;99.90;;;;;;5072321;28;20258;-61
2021/10/08 05:56:36;;;;;;;6.37;4.90;;;8.50;99.90;;;;;;5074487;28;20212;-61
2021/10/08 05:59:03;;;;;;;6.97;4.47;;;8.60;99.90;;;;;;5075020;28;20225;-62
2021/10/08 06:01:29;;;;;;;8.13;4.67;;;8.60;99.90;;;;;;5073312;28;20262;-61
2021/10/08 06:03:58;;;;;;;10.40;7.93;;;8.70;99.90;;;;;;5072673;28;20561;-61
2021/10/08 06:06:25;;;;;;;10.83;4.40;;;8.70;99.90;;;;;;5073776;28;20239;-62
2021/10/08 06:08:52;;;;;;;5.47;4.47;;;8.80;99.90;;;;;;5073283;28;20739;-61
2021/10/08 06:11:20;;;;;;;5.30;4.10;;;8.80;99.90;;;;;;5072796;28;20235;-61
2021/10/08 06:13:46;;;;;;;23.57;8.27;;;8.90;99.90;;;;;;5072113;28;20204;-61
2021/10/08 06:16:13;;;;;;;16.20;5.47;;;8.90;99.90;;;;;;5072350;28;20205;-61
2021/10/08 06:18:40;;;;;;;20.20;5.10;;;9.00;99.90;;;;;;5072695;28;20592;-61
2021/10/08 06:21:07;;;;;;;15.77;5.30;;;9.10;99.90;;;;;;5072644;28;20201;-61
2021/10/08 06:23:34;;;;;;;13.77;4.63;;;9.20;99.90;;;;;;5072234;28;20212;-62
2021/10/08 06:26:01;;;;;;;12.60;4.77;;;9.80;99.90;;;;;;5071781;28;20216;-62
2021/10/08 06:28:29;;;;;;;14.90;4.27;;;10.70;99.90;;;;;;5071254;28;20210;-62
2021/10/08 06:30:56;;;;;;;15.93;4.60;;;11.60;99.90;;;;;;5096325;22;20237;-65
2021/10/08 06:33:22;;;;;;;10.63;4.77;;;12.60;99.90;;;;;;5071728;28;20235;-66
2021/10/08 06:35:51;;;;;;;8.07;3.37;;;13.60;99.90;;;;;;5071916;28;20217;-68
2021/10/08 06:38:18;;;;;;;5.90;3.67;;;14.60;99.90;;;;;;5066933;28;20209;-66
2021/10/08 06:40:45;;;;;;;6.00;3.40;;;15.20;99.90;;;;;;5071386;28;20229;-67
2021/10/08 06:43:12;;;;;;;10.73;4.13;;;15.70;99.90;;;;;;5071753;28;20204;-67
2021/10/08 06:45:40;;;;;;;6.97;3.87;;;16.10;99.90;;;;;;5071677;28;20216;-67
2021/10/08 06:48:07;;;;;;;9.37;4.87;;;16.70;99.90;;;;;;5071958;28;20660;-68
2021/10/08 06:50:34;;;;;;;6.57;4.13;;;17.50;99.90;;;;;;5071437;28;20229;-67
2021/10/08 06:53:01;;;;;;;4.65;3.63;;;18.10;99.90;;;;;;5071375;28;20205;-68
2021/10/08 06:55:28;;;;;;;4.78;4.18;;;18.80;99.90;;;;;;5071565;28;20216;-67
2021/10/08 06:57:54;;;;;;;8.32;4.05;;;19.30;99.90;;;;;;5071790;28;20239;-68
2021/10/08 07:00:23;;;;;;;6.72;4.00;;;19.60;99.90;;;;;;5071784;28;20278;-67
2021/10/08 07:02:53;;;;;;;7.68;4.03;;;19.80;99.90;;;;;;5071742;28;20201;-67
2021/10/08 07:05:22;;;;;;;9.07;3.78;;;20.00;99.90;;;;;;5071597;28;20217;-67
2021/10/08 07:07:49;;;;;;;5.68;3.75;;;20.00;99.90;;;;;;5071324;28;20236;-67
2021/10/08 07:10:17;;;;;;;10.32;3.50;;;20.10;99.90;;;;;;5071677;28;20225;-67
2021/10/08 07:12:44;;;;;;;9.13;3.72;;;20.30;99.90;;;;;;5071027;28;20231;-67
2021/10/08 07:15:17;;;;;;;13.80;3.88;;;20.40;99.90;;;;;;5071122;28;20205;-69
2021/10/08 07:17:45;;;;;;;9.70;4.28;;;20.60;99.90;;;;;;5070885;28;20673;-67
2021/10/08 07:20:14;;;;;;;8.15;3.85;;;21.00;99.90;;;;;;5070788;28;20256;-68
2021/10/08 07:22:41;;;;;;;11.55;4.00;;;21.20;99.50;;;;;;5070677;28;20551;-68
2021/10/08 07:25:09;;;;;;;11.82;4.30;;;21.20;99.30;;;;;;5070774;28;20204;-68
2021/10/08 07:27:37;;;;;;;8.75;4.78;;;20.60;99.60;;;;;;5070439;28;20201;-68
2021/10/08 07:30:05;;;;;;;10.85;5.57;;;19.80;99.90;;;;;;5070764;28;20236;-68
2021/10/08 07:32:32;;;;;;;5.50;4.93;;;19.00;99.90;;;;;;5070902;28;20228;-68
2021/10/08 07:34:59;;;;;;;6.18;4.90;;;18.20;99.90;;;;;;5070880;28;20204;-68
2021/10/08 07:37:27;;;;;;;6.28;4.82;;;17.30;99.90;;;;;;5071164;28;20227;-69
2021/10/08 07:39:54;;;;;;;5.97;4.80;;;16.40;99.90;;;;;;5070436;28;20225;-68
2021/10/08 07:42:22;;;;;;;7.27;5.80;;;15.80;99.90;;;;;;5070569;28;20660;-66
2021/10/08 07:44:49;;;;;;;8.30;5.93;;;15.50;99.90;;;;;;5070529;28;20263;-68
2021/10/08 07:47:16;;;;;;;9.80;5.90;;;15.30;99.90;;;;;;5070638;28;20215;-67
2021/10/08 07:49:43;;;;;;;15.10;7.00;;;14.90;99.90;;;;;;5070720;28;20229;-67
2021/10/08 07:52:11;;;;;;;8.63;6.40;;;14.60;99.90;;;;;;5070524;28;20224;-67
2021/10/08 07:54:39;;;;;;;6.77;6.07;;;14.40;99.90;;;;;;5070523;28;20209;-66
2021/10/08 07:57:06;;;;;;;15.03;7.10;;;14.30;99.90;;;;;;5070711;28;20236;-67
2021/10/08 07:59:33;;;;;;;7.43;5.83;;;14.30;99.90;;;;;;5070437;28;20229;-67
2021/10/08 08:02:00;;;;;;;13.37;6.60;;;14.20;99.90;;;;;;5070596;28;20672;-67
2021/10/08 08:04:26;;;;;;;7.80;6.97;;;14.10;99.90;;;;;;5070574;28;20262;-67
2021/10/08 08:06:53;;;;;;;8.43;7.13;;;14.00;99.90;;;;;;5070803;28;20212;-68
2021/10/08 08:09:20;;;;;;;7.93;7.13;;;13.90;99.90;;;;;;5070300;28;20232;-67
2021/10/08 08:11:48;;;;;;;9.20;7.07;;;14.10;99.90;;;;;;5070492;28;20355;-66
2021/10/08 08:14:15;;;;;;;7.87;7.00;;;14.10;99.90;;;;;;5070266;28;20459;-67
2021/10/08 08:16:41;;;;;;;7.73;6.60;;;14.20;99.90;;;;;;5070230;28;20794;-68
2021/10/08 08:19:10;;;;;;;11.10;6.97;;;14.30;99.90;;;;;;5070335;28;20642;-67
2021/10/08 08:21:37;;;;;;;7.47;6.13;;;14.70;99.90;;;;;;5070322;28;20746;-67
2021/10/08 08:24:04;;;;;;;10.13;6.47;;;15.30;99.90;;;;;;5070598;28;20205;-69
2021/10/08 08:26:31;;;;;;;8.73;6.30;;;15.80;99.90;;;;;;5070459;28;20205;-67
2021/10/08 08:28:59;;;;;;;10.93;7.10;;;16.10;99.90;;;;;;5070259;28;20209;-69
2021/10/08 08:31:26;;;;;;;11.83;6.80;;;16.50;99.90;;;;;;5070362;28;20233;-69
2021/10/08 08:33:52;;;;;;;10.17;6.53;;;16.90;99.90;;;;;;5070739;28;20212;-68
2021/10/08 08:36:19;;;;;;;12.03;6.77;;;17.20;99.90;;;;;;5070629;28;20205;-67
2021/10/08 08:38:46;;;;;;;10.17;6.37;;;17.30;99.90;;;;;;5071394;28;20285;-68
2021/10/08 08:41:13;;;;;;;9.47;6.87;;;17.60;99.90;;;;;;5074012;28;20212;-68
2021/10/08 08:43:40;;;;;;;10.38;6.00;;;17.70;99.90;;;;;;5073748;28;20205;-68
2021/10/08 08:46:08;;;;;;;8.32;6.28;;;17.90;99.90;;;;;;5073925;28;20212;-69
2021/10/08 08:48:36;;;;;;;7.53;5.90;;;17.90;99.90;;;;;;5074036;28;20205;-67
2021/10/08 08:51:02;;;;;;;8.27;5.78;;;17.80;99.90;;;;;;5073571;28;20252;-67
2021/10/08 08:53:29;;;;;;;7.43;6.40;;;18.00;99.90;;;;;;5073698;28;20209;-67
2021/10/08 08:55:56;;;;;;;6.53;5.40;;;18.20;99.90;;;;;;5073849;28;20308;-66
2021/10/08 08:58:23;;;;;;;10.80;7.65;;;18.40;99.90;;;;;;5073368;28;20574;-68
2021/10/08 09:00:56;;;;;;;6.30;5.70;;;18.60;99.90;;;;;;5073516;28;20253;-67
2021/10/08 09:03:25;;;;;;;7.68;6.47;;;18.60;99.90;;;;;;5074699;28;20209;-67
2021/10/08 09:05:51;;;;;;;6.93;5.40;;;18.60;99.90;;;;;;5073719;28;20209;-66
2021/10/08 09:08:18;;;;;;;6.80;5.50;;;18.40;99.90;;;;;;5073456;28;20212;-66
2021/10/08 09:10:47;;;;;;;7.22;4.88;;;18.10;99.90;;;;;;5073347;28;20233;-67
2021/10/08 09:13:14;;;;;;;7.47;4.90;;;17.80;99.90;;;;;;5073695;28;20229;-67
2021/10/08 09:15:47;;;;;;;6.43;4.70;;;17.60;99.90;;;;;;5073374;28;20209;-67
2021/10/08 09:18:16;;;;;;;6.03;4.22;;;17.50;99.90;;;;;;5073104;28;20263;-67
2021/10/08 09:21:03;;;;;;;8.52;6.45;;;17.50;99.90;;;;;;5073363;28;20232;-66
2021/10/08 09:23:31;;;;;;;7.83;4.73;;;17.40;99.90;;;;;;5073611;28;20291;-67
2021/10/08 09:25:58;;;;;;;5.40;4.53;;;17.40;99.90;;;;;;5073774;28;20237;-67
2021/10/08 09:28:25;;;;;;;7.47;4.80;;;17.40;99.90;;;;;;5073534;28;20208;-67
2021/10/08 09:30:54;;;;;;;7.97;4.93;;;17.40;99.90;;;;;;5073195;28;20237;-65
2021/10/08 09:33:22;;;;;;;6.70;5.43;;;17.30;99.90;;;;;;5073147;28;20221;-65
2021/10/08 09:35:54;;;;;;;8.33;5.87;;;17.20;99.90;;;;;;5072879;28;20211;-66
2021/10/08 09:38:21;;;;;;;5.80;4.67;;;17.10;99.90;;;;;;5073229;28;20477;-66
2021/10/08 09:40:51;;;;;;;7.53;4.63;;;17.10;99.90;;;;;;5072800;28;20708;-66
2021/10/08 09:43:26;;;;;;;6.23;5.17;;;17.00;99.90;;;;;;5072761;28;20262;-65
2021/10/08 09:45:55;;;;;;;8.50;5.20;;;17.00;99.90;;;;;;5072960;28;20266;-66
2021/10/08 09:48:23;;;;;;;7.28;4.60;;;16.90;99.90;;;;;;5072995;28;20665;-67
2021/10/08 09:51:00;;;;;;;6.77;5.10;;;16.90;99.90;;;;;;5072620;28;20274;-66
2021/10/08 09:53:27;;;;;;;6.43;4.65;;;17.00;99.90;;;;;;5073500;28;20231;-66
2021/10/08 09:55:53;;;;;;;10.23;5.80;;;16.90;99.90;;;;;;5073251;28;20566;-66
2021/10/08 09:58:21;;;;;;;8.80;5.90;;;16.90;99.90;;;;;;5073551;28;20204;-66
2021/10/08 10:00:51;;;;;;;6.83;5.37;;;16.90;99.90;;;;;;5074035;28;20274;-66
2021/10/08 10:03:19;;;;;;;9.00;5.33;;;16.90;99.90;;;;;;5074498;28;20232;-66
2021/10/08 10:05:46;;;;;;;10.13;5.20;;;16.80;99.90;;;;;;5074369;28;20213;-66
2021/10/08 10:08:15;;;;;;;8.63;5.40;;;16.80;99.90;;;;;;5073793;28;20476;-66
2021/10/08 10:10:44;;;;;;;7.73;5.27;;;16.90;99.90;;;;;;5070476;28;20640;-66
2021/10/08 10:13:12;;;;;;;8.93;5.55;;;17.00;99.90;;;;;;5072632;28;20216;-66
2021/10/08 10:15:41;;;;;;;9.07;5.70;;;17.00;99.90;;;;;;5071775;28;20664;-65
2021/10/08 10:18:11;;;;;;;7.17;5.83;;;17.00;99.90;;;;;;5072070;28;20292;-67
2021/10/08 10:20:40;;;;;;;7.53;5.30;;;17.00;99.90;;;;;;5072025;28;20225;-65
2021/10/08 10:23:09;;;;;;;7.83;5.77;;;16.90;99.90;;;;;;5072494;28;20197;-65
2021/10/08 10:25:38;;;;;;;10.33;5.70;;;16.90;99.90;;;;;;5071957;28;20212;-63
2021/10/08 10:28:06;;;;;;;7.40;6.10;;;17.00;99.90;;;;;;5071855;28;20213;-64
2021/10/08 10:30:33;;;;;;;7.63;5.90;;;17.10;99.90;;;;;;5071542;28;20328;-68
2021/10/08 10:33:02;;;;;;;10.77;6.47;;;17.20;99.90;;;;;;5072028;28;20228;-66
2021/10/08 10:35:47;;;;;;;9.73;6.03;;;17.20;99.90;;;;;;5071510;28;20213;-67
2021/10/08 10:38:25;;;;;;;7.30;5.97;;;17.20;99.90;;;;;;5071352;28;20219;-67
2021/10/08 10:41:25;;;;;;;8.87;5.67;;;17.30;99.90;;;;;;5071526;28;20224;-66
2021/10/08 10:44:04;;;;;;;7.90;6.23;;;17.30;99.90;;;;;;5071234;28;20618;-66
2021/10/08 10:46:40;;;;;;;10.73;6.17;;;17.40;99.90;;;;;;5071385;28;20213;-66
2021/10/08 10:49:34;;;;;;;9.87;5.93;;;17.50;99.90;;;;;;5071487;28;20224;-68
2021/10/08 10:52:25;;;;;;;15.20;6.10;;;17.50;99.90;;;;;;5071629;28;20320;-66
2021/10/08 10:55:02;;;;;;;12.50;6.47;;;17.60;99.90;;;;;;5051592;28;20205;-67
2021/10/08 10:57:55;;;;;;;9.20;6.13;;;17.60;99.90;;;;;;5071488;28;20255;-67
2021/10/08 11:00:32;;;;;;;8.63;6.30;;;17.50;99.90;;;;;;5071425;28;20232;-66
2021/10/08 11:03:01;;;;;;;8.63;5.80;;;17.60;99.90;;;;;;5070507;28;20201;-67
2021/10/08 11:05:29;;;;;;;8.40;6.53;;;17.80;99.90;;;;;;5071267;28;20263;-68
2021/10/08 11:08:12;;;;;;;10.57;6.15;;;17.90;99.90;;;;;;5070938;28;20622;-68
2021/10/08 11:10:40;;;;;;;8.23;5.78;;;18.20;99.90;;;;;;5071140;28;20892;-68
2021/10/08 11:13:27;;;;;;;8.23;6.23;;;18.40;99.90;;;;;;5070904;28;20224;-69
2021/10/08 11:15:59;;;;;;;8.07;5.30;;;18.60;99.90;;;;;;5070912;28;20204;-68
2021/10/08 11:18:47;;;;;;;7.03;5.77;;;18.70;99.90;;;;;;5070703;28;20205;-69
2021/10/08 11:21:51;;;;;;;7.70;5.88;;;18.90;99.90;;;;;;5071196;28;20262;-68
2021/10/08 11:24:21;;;;;;;7.97;5.78;;;19.00;99.90;;;;;;5070869;28;20557;-68
2021/10/08 11:26:57;;;;;;;9.00;5.72;;;19.00;99.90;;;;;;5070980;28;20205;-68
2021/10/08 11:29:26;;;;;;;6.95;5.40;;;19.00;99.90;;;;;;5070922;28;20343;-68
2021/10/08 11:32:07;;;;;;;7.78;5.90;;;19.00;99.90;;;;;;5070986;28;20205;-68
2021/10/08 11:34:46;;;;;;;9.50;5.43;;;19.00;99.90;;;;;;5070817;28;20704;-68
2021/10/08 11:37:13;;;;;;;8.13;5.88;;;19.00;99.90;;;;;;5070691;28;20547;-68
2021/10/08 11:39:43;;;;;;;8.00;5.35;;;19.10;99.90;;;;;;5070607;28;20708;-69
2021/10/08 11:42:11;;;;;;;9.75;6.18;;;19.10;99.90;;;;;;5070784;28;20810;-68
2021/10/08 11:44:54;;;;;;;10.13;6.15;;;19.00;99.90;;;;;;5070446;28;20212;-68
2021/10/08 11:47:26;;;;;;;9.13;6.25;;;18.80;99.90;;;;;;5070701;28;20208;-70
2021/10/08 11:52:37;;;;;;;7.05;5.97;;;18.80;99.90;;;;;;5047526;28;20828;-69
2021/10/08 11:55:10;;;;;;;10.45;5.72;;;18.70;99.90;;;;;;5070469;28;20205;-68
2021/10/08 11:57:57;;;;;;;8.13;6.03;;;18.70;99.90;;;;;;5070770;28;20193;-69
2021/10/08 12:00:27;;;;;;;8.30;6.50;;;18.60;99.90;;;;;;5070435;28;20224;-69
2021/10/08 12:03:03;;;;;;;7.70;6.13;;;18.50;99.90;;;;;;5070512;28;20562;-69
2021/10/08 12:05:45;;;;;;;8.68;6.18;;;18.30;99.90;;;;;;5070255;28;20216;-67
2021/10/08 12:08:14;;;;;;;7.95;5.35;;;18.20;99.90;;;;;;5070439;28;20208;-67
2021/10/08 12:10:54;;;;;;;8.40;6.20;;;18.40;99.90;;;;;;5070478;28;20553;-67
2021/10/08 12:13:21;;;;;;;10.20;6.43;;;18.50;99.90;;;;;;5070876;28;20221;-68
2021/10/08 12:15:54;;;;;;;7.40;6.32;;;18.40;99.90;;;;;;5074270;28;20208;-68
2021/10/08 12:18:22;;;;;;;8.88;6.78;;;18.30;99.90;;;;;;5071251;28;20449;-69
2021/10/08 12:20:49;;;;;;;10.38;6.82;;;18.30;99.90;;;;;;5074082;28;20229;-65
2021/10/08 12:23:23;;;;;;;8.77;7.18;;;18.10;99.90;;;;;;5074016;28;20201;-70
2021/10/08 12:25:52;;;;;;;9.13;6.43;;;18.10;99.90;;;;;;5074208;28;20258;-68
2021/10/08 12:28:20;;;;;;;11.20;6.70;;;18.10;99.90;;;;;;5073975;28;20208;-70
2021/10/08 12:30:56;;;;;;;7.38;6.30;;;18.10;99.90;;;;;;5074240;28;20260;-70
2021/10/08 12:33:30;;;;;;;9.93;6.70;;;18.10;99.90;;;;;;5074023;28;20235;-70
2021/10/08 12:36:21;;;;;;;9.20;6.78;;;18.10;99.90;;;;;;5073933;28;20579;-70
2021/10/08 12:39:04;;;;;;;7.55;6.35;;;18.20;99.90;;;;;;5073751;28;20209;-71
2021/10/08 12:41:36;;;;;;;7.43;6.40;;;18.30;99.90;;;;;;5074136;28;20288;-69
2021/10/08 12:44:10;;;;;;;9.02;6.63;;;18.30;99.90;;;;;;5073969;28;20549;-71
2021/10/08 12:46:38;;;;;;;7.95;6.10;;;18.40;99.90;;;;;;5074480;28;20625;-69
2021/10/08 12:49:08;;;;;;;7.18;5.95;;;18.70;99.90;;;;;;5073870;28;20229;-70
2021/10/08 12:51:46;;;;;;;9.13;5.80;;;18.80;99.90;;;;;;5073683;28;20236;-70
2021/10/08 12:54:14;;;;;;;7.60;5.82;;;18.80;99.90;;;;;;5073474;28;20231;-71
2021/10/08 12:56:41;;;;;;;7.75;6.25;;;18.70;99.90;;;;;;5073584;28;20204;-69
2021/10/08 12:59:08;;;;;;;11.55;7.47;;;18.80;99.90;;;;;;5073254;28;20225;-71
2021/10/08 13:01:35;;;;;;;8.18;6.63;;;18.80;99.90;;;;;;5073607;28;20216;-72